sensor_id;sensor_type;location;lat;lon;timestamp;temperature;humidity
18105;DHT22;9179;50.968;3.134;2023-02-28T00:01:17;22.60;64.70
18105;DHT22;9179;50.968;3.134;2023-02-28T00:03:46;22.60;64.80
18105;DHT22;9179;50.968;3.134;2023-02-28T00:06:13;22.50;64.80
18105;DHT22;9179;50.968;3.134;2023-02-28T00:08:40;22.50;64.80
18105;DHT22;9179;50.968;3.134;2023-02-28T00:11:08;22.50;64.90
18105;DHT22;9179;50.968;3.134;2023-02-28T00:13:38;22.40;65.00
18105;DHT22;9179;50.968;3.134;2023-02-28T00:16:07;22.40;65.10
18105;DHT22;9179;50.968;3.134;2023-02-28T00:18:35;22.40;65.10
18105;DHT22;9179;50.968;3.134;2023-02-28T00:21:04;22.30;65.10
18105;DHT22;9179;50.968;3.134;2023-02-28T00:23:32;22.30;65.10
18105;DHT22;9179;50.968;3.134;2023-02-28T00:25:59;22.20;65.10
18105;DHT22;9179;50.968;3.134;2023-02-28T00:28:25;22.20;65.10
18105;DHT22;9179;50.968;3.134;2023-02-28T00:30:52;22.20;65.20
18105;DHT22;9179;50.968;3.134;2023-02-28T00:33:19;22.20;65.30
18105;DHT22;9179;50.968;3.134;2023-02-28T00:35:46;22.10;65.30
18105;DHT22;9179;50.968;3.134;2023-02-28T00:38:15;22.10;65.40
18105;DHT22;9179;50.968;3.134;2023-02-28T00:40:42;22.10;65.40
18105;DHT22;9179;50.968;3.134;2023-02-28T00:43:09;22.10;65.40
18105;DHT22;9179;50.968;3.134;2023-02-28T00:45:36;22.00;65.50
18105;DHT22;9179;50.968;3.134;2023-02-28T00:48:03;22.00;65.60
18105;DHT22;9179;50.968;3.134;2023-02-28T00:50:30;21.90;65.60
18105;DHT22;9179;50.968;3.134;2023-02-28T00:52:57;21.90;66.50
18105;DHT22;9179;50.968;3.134;2023-02-28T00:55:26;21.90;65.70
18105;DHT22;9179;50.968;3.134;2023-02-28T00:57:53;21.80;65.80
18105;DHT22;9179;50.968;3.134;2023-02-28T01:00:20;21.80;65.80
18105;DHT22;9179;50.968;3.134;2023-02-28T01:02:47;21.80;65.80
18105;DHT22;9179;50.968;3.134;2023-02-28T01:05:14;21.70;65.80
18105;DHT22;9179;50.968;3.134;2023-02-28T01:07:41;21.70;65.90
18105;DHT22;9179;50.968;3.134;2023-02-28T01:10:09;21.70;65.90
18105;DHT22;9179;50.968;3.134;2023-02-28T01:12:38;21.70;66.00
18105;DHT22;9179;50.968;3.134;2023-02-28T01:15:05;21.70;66.10
18105;DHT22;9179;50.968;3.134;2023-02-28T01:17:33;21.70;66.10
18105;DHT22;9179;50.968;3.134;2023-02-28T01:19:59;21.60;66.20
18105;DHT22;9179;50.968;3.134;2023-02-28T01:22:26;21.60;66.20
18105;DHT22;9179;50.968;3.134;2023-02-28T01:24:53;21.60;66.30
18105;DHT22;9179;50.968;3.134;2023-02-28T01:27:20;21.50;66.30
18105;DHT22;9179;50.968;3.134;2023-02-28T01:29:50;21.50;66.40
18105;DHT22;9179;50.968;3.134;2023-02-28T01:32:17;21.50;66.40
18105;DHT22;9179;50.968;3.134;2023-02-28T01:34:44;21.50;66.40
18105;DHT22;9179;50.968;3.134;2023-02-28T01:37:11;21.40;66.40
18105;DHT22;9179;50.968;3.134;2023-02-28T01:39:38;21.40;66.50
18105;DHT22;9179;50.968;3.134;2023-02-28T01:42:05;21.30;66.50
18105;DHT22;9179;50.968;3.134;2023-02-28T01:44:57;21.40;66.60
18105;DHT22;9179;50.968;3.134;2023-02-28T01:47:26;21.30;66.70
18105;DHT22;9179;50.968;3.134;2023-02-28T01:49:55;21.30;66.60
18105;DHT22;9179;50.968;3.134;2023-02-28T01:52:22;21.30;66.70
18105;DHT22;9179;50.968;3.134;2023-02-28T01:54:52;21.30;66.80
18105;DHT22;9179;50.968;3.134;2023-02-28T01:57:23;21.20;66.80
18105;DHT22;9179;50.968;3.134;2023-02-28T01:59:53;21.20;66.90
18105;DHT22;9179;50.968;3.134;2023-02-28T02:02:23;21.20;66.90
18105;DHT22;9179;50.968;3.134;2023-02-28T02:04:54;21.20;66.90
18105;DHT22;9179;50.968;3.134;2023-02-28T02:07:22;21.10;66.90
18105;DHT22;9179;50.968;3.134;2023-02-28T02:09:50;21.10;66.90
18105;DHT22;9179;50.968;3.134;2023-02-28T02:12:27;21.10;67.00
18105;DHT22;9179;50.968;3.134;2023-02-28T02:15:03;21.10;67.20
18105;DHT22;9179;50.968;3.134;2023-02-28T02:17:38;21.00;67.00
18105;DHT22;9179;50.968;3.134;2023-02-28T02:23:33;21.00;67.30
18105;DHT22;9179;50.968;3.134;2023-02-28T02:26:32;20.90;67.20
18105;DHT22;9179;50.968;3.134;2023-02-28T02:29:45;20.90;67.30
18105;DHT22;9179;50.968;3.134;2023-02-28T02:32:27;20.90;67.30
18105;DHT22;9179;50.968;3.134;2023-02-28T02:35:08;20.90;67.20
18105;DHT22;9179;50.968;3.134;2023-02-28T02:37:41;20.80;67.40
18105;DHT22;9179;50.968;3.134;2023-02-28T02:40:13;20.80;67.30
18105;DHT22;9179;50.968;3.134;2023-02-28T02:42:47;20.80;67.50
18105;DHT22;9179;50.968;3.134;2023-02-28T02:45:21;20.80;67.60
18105;DHT22;9179;50.968;3.134;2023-02-28T02:47:50;20.70;67.50
18105;DHT22;9179;50.968;3.134;2023-02-28T02:50:23;20.70;67.50
18105;DHT22;9179;50.968;3.134;2023-02-28T02:52:55;20.70;67.50
18105;DHT22;9179;50.968;3.134;2023-02-28T02:55:23;20.70;67.60
18105;DHT22;9179;50.968;3.134;2023-02-28T02:57:54;20.70;67.60
18105;DHT22;9179;50.968;3.134;2023-02-28T03:00:26;20.60;67.60
18105;DHT22;9179;50.968;3.134;2023-02-28T03:02:56;20.60;67.70
18105;DHT22;9179;50.968;3.134;2023-02-28T03:05:27;20.60;67.70
18105;DHT22;9179;50.968;3.134;2023-02-28T03:07:55;20.60;67.80
18105;DHT22;9179;50.968;3.134;2023-02-28T03:10:37;20.60;67.80
18105;DHT22;9179;50.968;3.134;2023-02-28T03:13:16;20.50;67.80
18105;DHT22;9179;50.968;3.134;2023-02-28T03:15:58;20.50;67.80
18105;DHT22;9179;50.968;3.134;2023-02-28T03:18:34;20.50;67.80
18105;DHT22;9179;50.968;3.134;2023-02-28T03:21:08;20.50;67.80
18105;DHT22;9179;50.968;3.134;2023-02-28T03:23:45;20.40;67.80
18105;DHT22;9179;50.968;3.134;2023-02-28T03:26:19;20.40;67.90
18105;DHT22;9179;50.968;3.134;2023-02-28T03:28:52;20.40;68.00
18105;DHT22;9179;50.968;3.134;2023-02-28T03:31:25;20.40;68.00
18105;DHT22;9179;50.968;3.134;2023-02-28T03:33:58;20.40;68.00
18105;DHT22;9179;50.968;3.134;2023-02-28T03:36:29;20.40;68.00
18105;DHT22;9179;50.968;3.134;2023-02-28T03:38:58;20.30;68.00
18105;DHT22;9179;50.968;3.134;2023-02-28T03:41:31;20.30;68.10
18105;DHT22;9179;50.968;3.134;2023-02-28T03:44:02;20.30;68.10
18105;DHT22;9179;50.968;3.134;2023-02-28T03:46:31;20.30;68.10
18105;DHT22;9179;50.968;3.134;2023-02-28T03:49:02;20.20;68.10
18105;DHT22;9179;50.968;3.134;2023-02-28T03:51:32;20.20;68.10
18105;DHT22;9179;50.968;3.134;2023-02-28T03:54:02;20.20;68.20
18105;DHT22;9179;50.968;3.134;2023-02-28T03:56:34;20.20;68.20
18105;DHT22;9179;50.968;3.134;2023-02-28T03:59:08;20.20;68.30
18105;DHT22;9179;50.968;3.134;2023-02-28T04:01:38;20.10;68.30
18105;DHT22;9179;50.968;3.134;2023-02-28T04:04:07;20.10;68.40
18105;DHT22;9179;50.968;3.134;2023-02-28T04:06:35;20.10;68.50
18105;DHT22;9179;50.968;3.134;2023-02-28T04:09:04;20.10;68.50
18105;DHT22;9179;50.968;3.134;2023-02-28T04:11:34;20.10;68.60
18105;DHT22;9179;50.968;3.134;2023-02-28T04:14:01;20.10;68.70
18105;DHT22;9179;50.968;3.134;2023-02-28T04:16:28;20.10;68.70
18105;DHT22;9179;50.968;3.134;2023-02-28T04:18:56;20.10;68.80
18105;DHT22;9179;50.968;3.134;2023-02-28T04:21:27;20.00;68.80
18105;DHT22;9179;50.968;3.134;2023-02-28T04:23:56;20.10;69.10
18105;DHT22;9179;50.968;3.134;2023-02-28T04:26:28;20.10;69.20
18105;DHT22;9179;50.968;3.134;2023-02-28T04:28:56;20.20;69.40
18105;DHT22;9179;50.968;3.134;2023-02-28T04:31:23;20.40;69.50
18105;DHT22;9179;50.968;3.134;2023-02-28T04:33:50;20.60;69.50
18105;DHT22;9179;50.968;3.134;2023-02-28T04:36:17;20.80;69.20
18105;DHT22;9179;50.968;3.134;2023-02-28T04:38:45;21.00;68.90
18105;DHT22;9179;50.968;3.134;2023-02-28T04:41:13;21.20;68.40
18105;DHT22;9179;50.968;3.134;2023-02-28T04:43:40;21.30;68.10
18105;DHT22;9179;50.968;3.134;2023-02-28T04:46:08;21.40;67.70
18105;DHT22;9179;50.968;3.134;2023-02-28T04:48:38;21.50;67.20
18105;DHT22;9179;50.968;3.134;2023-02-28T04:51:07;21.60;66.90
18105;DHT22;9179;50.968;3.134;2023-02-28T04:53:34;21.70;66.50
18105;DHT22;9179;50.968;3.134;2023-02-28T04:56:02;21.80;66.20
18105;DHT22;9179;50.968;3.134;2023-02-28T04:58:31;21.90;65.90
18105;DHT22;9179;50.968;3.134;2023-02-28T05:01:02;21.90;65.70
18105;DHT22;9179;50.968;3.134;2023-02-28T05:03:29;22.00;65.40
18105;DHT22;9179;50.968;3.134;2023-02-28T05:05:56;22.00;65.30
18105;DHT22;9179;50.968;3.134;2023-02-28T05:08:23;22.10;65.10
18105;DHT22;9179;50.968;3.134;2023-02-28T05:10:50;22.10;65.00
18105;DHT22;9179;50.968;3.134;2023-02-28T05:13:17;22.10;64.80
18105;DHT22;9179;50.968;3.134;2023-02-28T05:15:46;22.10;64.60
18105;DHT22;9179;50.968;3.134;2023-02-28T05:18:13;22.10;64.60
18105;DHT22;9179;50.968;3.134;2023-02-28T05:20:39;22.10;64.50
18105;DHT22;9179;50.968;3.134;2023-02-28T05:23:08;22.10;64.50
18105;DHT22;9179;50.968;3.134;2023-02-28T05:25:35;22.10;64.40
18105;DHT22;9179;50.968;3.134;2023-02-28T05:28:02;22.00;64.30
18105;DHT22;9179;50.968;3.134;2023-02-28T05:30:30;22.00;64.30
18105;DHT22;9179;50.968;3.134;2023-02-28T05:32:58;21.90;64.30
18105;DHT22;9179;50.968;3.134;2023-02-28T05:35:26;21.90;64.20
18105;DHT22;9179;50.968;3.134;2023-02-28T05:37:53;21.90;64.20
18105;DHT22;9179;50.968;3.134;2023-02-28T05:40:20;21.90;64.30
18105;DHT22;9179;50.968;3.134;2023-02-28T05:42:47;21.80;64.10
18105;DHT22;9179;50.968;3.134;2023-02-28T05:45:14;21.80;64.20
18105;DHT22;9179;50.968;3.134;2023-02-28T05:47:41;21.80;64.20
18105;DHT22;9179;50.968;3.134;2023-02-28T05:50:10;21.80;64.20
18105;DHT22;9179;50.968;3.134;2023-02-28T05:52:37;21.70;64.10
18105;DHT22;9179;50.968;3.134;2023-02-28T05:55:05;21.70;64.20
18105;DHT22;9179;50.968;3.134;2023-02-28T05:57:32;21.70;64.30
18105;DHT22;9179;50.968;3.134;2023-02-28T05:59:59;21.70;64.30
18105;DHT22;9179;50.968;3.134;2023-02-28T06:02:26;21.70;64.40
18105;DHT22;9179;50.968;3.134;2023-02-28T06:04:53;21.60;64.40
18105;DHT22;9179;50.968;3.134;2023-02-28T06:07:22;21.60;64.50
18105;DHT22;9179;50.968;3.134;2023-02-28T06:09:49;21.50;64.50
18105;DHT22;9179;50.968;3.134;2023-02-28T06:12:15;21.50;64.60
18105;DHT22;9179;50.968;3.134;2023-02-28T06:14:43;21.50;64.60
18105;DHT22;9179;50.968;3.134;2023-02-28T06:17:10;21.40;64.60
18105;DHT22;9179;50.968;3.134;2023-02-28T06:19:37;21.40;64.70
18105;DHT22;9179;50.968;3.134;2023-02-28T06:22:07;21.40;64.80
18105;DHT22;9179;50.968;3.134;2023-02-28T06:24:35;21.40;64.80
18105;DHT22;9179;50.968;3.134;2023-02-28T06:27:02;21.30;64.80
18105;DHT22;9179;50.968;3.134;2023-02-28T06:29:30;21.40;64.70
18105;DHT22;9179;50.968;3.134;2023-02-28T06:31:57;21.40;64.70
18105;DHT22;9179;50.968;3.134;2023-02-28T06:34:24;21.40;64.80
18105;DHT22;9179;50.968;3.134;2023-02-28T06:36:52;21.40;65.00
18105;DHT22;9179;50.968;3.134;2023-02-28T06:39:19;21.50;65.30
18105;DHT22;9179;50.968;3.134;2023-02-28T06:41:47;21.60;65.30
18105;DHT22;9179;50.968;3.134;2023-02-28T06:44:17;21.80;65.30
18105;DHT22;9179;50.968;3.134;2023-02-28T06:46:45;22.10;65.40
18105;DHT22;9179;50.968;3.134;2023-02-28T06:49:12;22.50;65.20
18105;DHT22;9179;50.968;3.134;2023-02-28T06:51:41;22.80;64.60
18105;DHT22;9179;50.968;3.134;2023-02-28T06:54:10;23.10;64.00
18105;DHT22;9179;50.968;3.134;2023-02-28T06:56:37;23.40;63.50
18105;DHT22;9179;50.968;3.134;2023-02-28T06:59:06;23.80;62.90
18105;DHT22;9179;50.968;3.134;2023-02-28T07:01:33;24.10;62.30
18105;DHT22;9179;50.968;3.134;2023-02-28T07:04:00;24.40;61.90
18105;DHT22;9179;50.968;3.134;2023-02-28T07:06:27;24.60;61.30
18105;DHT22;9179;50.968;3.134;2023-02-28T07:08:55;24.80;60.80
18105;DHT22;9179;50.968;3.134;2023-02-28T07:11:24;25.10;60.20
18105;DHT22;9179;50.968;3.134;2023-02-28T07:13:51;25.20;59.90
18105;DHT22;9179;50.968;3.134;2023-02-28T07:16:20;25.30;59.60
18105;DHT22;9179;50.968;3.134;2023-02-28T07:18:48;25.50;59.30
18105;DHT22;9179;50.968;3.134;2023-02-28T07:21:15;25.60;59.30
18105;DHT22;9179;50.968;3.134;2023-02-28T07:23:42;25.60;59.30
18105;DHT22;9179;50.968;3.134;2023-02-28T07:26:12;25.70;59.40
18105;DHT22;9179;50.968;3.134;2023-02-28T07:28:40;25.70;59.40
18105;DHT22;9179;50.968;3.134;2023-02-28T07:31:08;25.70;59.50
18105;DHT22;9179;50.968;3.134;2023-02-28T07:33:37;25.70;59.50
18105;DHT22;9179;50.968;3.134;2023-02-28T07:36:06;25.70;59.60
18105;DHT22;9179;50.968;3.134;2023-02-28T07:38:34;25.60;59.70
18105;DHT22;9179;50.968;3.134;2023-02-28T07:41:01;25.60;59.80
18105;DHT22;9179;50.968;3.134;2023-02-28T07:43:30;25.50;59.90
18105;DHT22;9179;50.968;3.134;2023-02-28T07:46:01;25.50;60.10
18105;DHT22;9179;50.968;3.134;2023-02-28T07:48:28;25.40;60.30
18105;DHT22;9179;50.968;3.134;2023-02-28T07:50:57;25.30;60.40
18105;DHT22;9179;50.968;3.134;2023-02-28T07:53:24;25.20;60.50
18105;DHT22;9179;50.968;3.134;2023-02-28T07:55:54;25.20;60.70
18105;DHT22;9179;50.968;3.134;2023-02-28T07:58:21;25.20;60.70
18105;DHT22;9179;50.968;3.134;2023-02-28T08:00:47;25.10;60.90
18105;DHT22;9179;50.968;3.134;2023-02-28T08:03:14;25.10;61.20
18105;DHT22;9179;50.968;3.134;2023-02-28T08:05:42;25.10;61.40
18105;DHT22;9179;50.968;3.134;2023-02-28T08:08:10;25.20;61.80
18105;DHT22;9179;50.968;3.134;2023-02-28T08:10:37;25.30;62.00
18105;DHT22;9179;50.968;3.134;2023-02-28T08:13:04;25.40;62.00
18105;DHT22;9179;50.968;3.134;2023-02-28T08:15:31;25.40;62.10
18105;DHT22;9179;50.968;3.134;2023-02-28T08:17:58;25.50;62.30
18105;DHT22;9179;50.968;3.134;2023-02-28T08:20:26;25.80;62.20
18105;DHT22;9179;50.968;3.134;2023-02-28T08:22:53;26.10;61.80
18105;DHT22;9179;50.968;3.134;2023-02-28T08:25:21;26.30;61.30
18105;DHT22;9179;50.968;3.134;2023-02-28T08:27:50;26.50;60.70
18105;DHT22;9179;50.968;3.134;2023-02-28T08:30:17;26.60;60.20
18105;DHT22;9179;50.968;3.134;2023-02-28T08:32:44;26.70;60.00
18105;DHT22;9179;50.968;3.134;2023-02-28T08:35:11;26.70;59.70
18105;DHT22;9179;50.968;3.134;2023-02-28T08:37:38;26.70;59.50
18105;DHT22;9179;50.968;3.134;2023-02-28T08:40:06;26.70;59.50
18105;DHT22;9179;50.968;3.134;2023-02-28T08:42:35;26.80;59.40
18105;DHT22;9179;50.968;3.134;2023-02-28T08:45:03;26.70;59.40
18105;DHT22;9179;50.968;3.134;2023-02-28T08:47:30;26.70;59.50
18105;DHT22;9179;50.968;3.134;2023-02-28T08:49:57;26.60;59.50
18105;DHT22;9179;50.968;3.134;2023-02-28T08:52:24;26.50;59.60
18105;DHT22;9179;50.968;3.134;2023-02-28T08:54:51;26.40;59.60
18105;DHT22;9179;50.968;3.134;2023-02-28T08:57:18;26.40;59.60
18105;DHT22;9179;50.968;3.134;2023-02-28T08:59:46;26.30;59.70
18105;DHT22;9179;50.968;3.134;2023-02-28T09:02:13;26.20;59.80
18105;DHT22;9179;50.968;3.134;2023-02-28T09:04:40;26.20;59.90
18105;DHT22;9179;50.968;3.134;2023-02-28T09:07:08;26.10;60.00
18105;DHT22;9179;50.968;3.134;2023-02-28T09:09:35;26.00;60.00
18105;DHT22;9179;50.968;3.134;2023-02-28T09:12:02;25.90;60.10
18105;DHT22;9179;50.968;3.134;2023-02-28T09:14:29;25.80;60.30
18105;DHT22;9179;50.968;3.134;2023-02-28T09:16:58;25.70;60.30
18105;DHT22;9179;50.968;3.134;2023-02-28T09:19:25;25.70;60.40
18105;DHT22;9179;50.968;3.134;2023-02-28T09:21:52;25.70;60.80
18105;DHT22;9179;50.968;3.134;2023-02-28T09:24:19;25.60;60.80
18105;DHT22;9179;50.968;3.134;2023-02-28T09:26:46;25.50;61.00
18105;DHT22;9179;50.968;3.134;2023-02-28T09:29:13;25.40;61.10
18105;DHT22;9179;50.968;3.134;2023-02-28T09:31:40;25.40;61.20
18105;DHT22;9179;50.968;3.134;2023-02-28T09:34:08;25.40;61.30
18105;DHT22;9179;50.968;3.134;2023-02-28T09:36:35;25.30;62.20
18105;DHT22;9179;50.968;3.134;2023-02-28T09:39:03;25.30;61.40
18105;DHT22;9179;50.968;3.134;2023-02-28T09:41:37;25.20;61.50
18105;DHT22;9179;50.968;3.134;2023-02-28T09:44:17;25.20;61.70
18105;DHT22;9179;50.968;3.134;2023-02-28T09:46:49;25.20;61.60
18105;DHT22;9179;50.968;3.134;2023-02-28T09:49:23;25.10;61.60
18105;DHT22;9179;50.968;3.134;2023-02-28T09:51:54;25.00;61.60
18105;DHT22;9179;50.968;3.134;2023-02-28T09:54:27;25.00;61.80
18105;DHT22;9179;50.968;3.134;2023-02-28T09:56:59;24.90;62.10
18105;DHT22;9179;50.968;3.134;2023-02-28T09:59:48;24.70;62.60
18105;DHT22;9179;50.968;3.134;2023-02-28T10:02:28;24.70;62.80
18105;DHT22;9179;50.968;3.134;2023-02-28T10:05:07;24.70;63.10
18105;DHT22;9179;50.968;3.134;2023-02-28T10:07:50;24.80;63.20
18105;DHT22;9179;50.968;3.134;2023-02-28T10:10:24;25.00;63.50
18105;DHT22;9179;50.968;3.134;2023-02-28T10:12:55;25.20;63.60
18105;DHT22;9179;50.968;3.134;2023-02-28T10:15:25;25.40;63.40
18105;DHT22;9179;50.968;3.134;2023-02-28T10:17:56;25.70;63.20
18105;DHT22;9179;50.968;3.134;2023-02-28T10:20:26;25.90;62.70
18105;DHT22;9179;50.968;3.134;2023-02-28T10:22:58;26.10;62.20
18105;DHT22;9179;50.968;3.134;2023-02-28T10:25:33;26.30;61.60
18105;DHT22;9179;50.968;3.134;2023-02-28T10:28:08;26.50;61.20
18105;DHT22;9179;50.968;3.134;2023-02-28T10:30:40;26.60;60.80
18105;DHT22;9179;50.968;3.134;2023-02-28T10:33:20;26.70;60.60
18105;DHT22;9179;50.968;3.134;2023-02-28T10:35:49;26.70;60.20
18105;DHT22;9179;50.968;3.134;2023-02-28T10:38:23;26.70;60.00
18105;DHT22;9179;50.968;3.134;2023-02-28T10:40:51;26.70;60.00
18105;DHT22;9179;50.968;3.134;2023-02-28T10:43:29;26.70;60.00
18105;DHT22;9179;50.968;3.134;2023-02-28T10:45:59;26.60;60.10
18105;DHT22;9179;50.968;3.134;2023-02-28T10:48:32;26.50;60.20
18105;DHT22;9179;50.968;3.134;2023-02-28T10:51:01;26.50;60.20
18105;DHT22;9179;50.968;3.134;2023-02-28T10:53:33;26.40;60.30
18105;DHT22;9179;50.968;3.134;2023-02-28T10:56:02;26.30;60.30
18105;DHT22;9179;50.968;3.134;2023-02-28T10:58:34;26.30;60.30
18105;DHT22;9179;50.968;3.134;2023-02-28T11:01:13;26.30;60.40
18105;DHT22;9179;50.968;3.134;2023-02-28T11:03:41;26.20;60.90
18105;DHT22;9179;50.968;3.134;2023-02-28T11:06:15;26.20;61.20
18105;DHT22;9179;50.968;3.134;2023-02-28T11:08:46;26.20;61.60
18105;DHT22;9179;50.968;3.134;2023-02-28T11:11:14;26.20;61.80
18105;DHT22;9179;50.968;3.134;2023-02-28T11:13:42;26.20;61.90
18105;DHT22;9179;50.968;3.134;2023-02-28T11:16:11;26.10;62.10
18105;DHT22;9179;50.968;3.134;2023-02-28T11:18:42;26.10;62.20
18105;DHT22;9179;50.968;3.134;2023-02-28T11:21:18;26.10;62.40
18105;DHT22;9179;50.968;3.134;2023-02-28T11:23:47;26.10;62.50
18105;DHT22;9179;50.968;3.134;2023-02-28T11:26:16;26.10;62.70
18105;DHT22;9179;50.968;3.134;2023-02-28T11:29:09;26.00;62.70
18105;DHT22;9179;50.968;3.134;2023-02-28T11:31:36;25.90;62.70
18105;DHT22;9179;50.968;3.134;2023-02-28T11:34:23;25.90;63.00
18105;DHT22;9179;50.968;3.134;2023-02-28T11:36:54;25.90;63.70
18105;DHT22;9179;50.968;3.134;2023-02-28T11:39:23;25.80;64.10
18105;DHT22;9179;50.968;3.134;2023-02-28T11:42:09;25.80;64.60
18105;DHT22;9179;50.968;3.134;2023-02-28T11:44:55;25.70;64.90
18105;DHT22;9179;50.968;3.134;2023-02-28T11:47:32;25.70;64.90
18105;DHT22;9179;50.968;3.134;2023-02-28T11:50:19;25.70;65.20
18105;DHT22;9179;50.968;3.134;2023-02-28T11:52:53;25.50;65.60
18105;DHT22;9179;50.968;3.134;2023-02-28T11:55:25;25.40;65.60
18105;DHT22;9179;50.968;3.134;2023-02-28T12:01:32;25.70;65.70
18105;DHT22;9179;50.968;3.134;2023-02-28T12:04:21;26.00;66.10
18105;DHT22;9179;50.968;3.134;2023-02-28T12:06:55;26.20;65.30
18105;DHT22;9179;50.968;3.134;2023-02-28T12:09:43;26.60;65.00
18105;DHT22;9179;50.968;3.134;2023-02-28T12:12:22;26.90;64.50
18105;DHT22;9179;50.968;3.134;2023-02-28T12:15:02;27.10;63.90
18105;DHT22;9179;50.968;3.134;2023-02-28T12:17:42;27.30;63.40
18105;DHT22;9179;50.968;3.134;2023-02-28T12:20:22;27.50;63.10
18105;DHT22;9179;50.968;3.134;2023-02-28T12:23:00;27.60;62.80
18105;DHT22;9179;50.968;3.134;2023-02-28T12:26:08;27.60;62.40
18105;DHT22;9179;50.968;3.134;2023-02-28T12:28:41;27.70;61.90
18105;DHT22;9179;50.968;3.134;2023-02-28T12:31:15;27.70;58.90
18105;DHT22;9179;50.968;3.134;2023-02-28T12:33:47;27.70;59.60
18105;DHT22;9179;50.968;3.134;2023-02-28T12:36:17;27.70;59.60
18105;DHT22;9179;50.968;3.134;2023-02-28T12:38:49;27.70;59.50
18105;DHT22;9179;50.968;3.134;2023-02-28T12:41:22;27.70;59.50
18105;DHT22;9179;50.968;3.134;2023-02-28T12:43:55;27.70;59.10
18105;DHT22;9179;50.968;3.134;2023-02-28T12:46:28;27.70;58.90
18105;DHT22;9179;50.968;3.134;2023-02-28T12:48:58;27.60;58.90
18105;DHT22;9179;50.968;3.134;2023-02-28T12:51:27;27.60;59.00
18105;DHT22;9179;50.968;3.134;2023-02-28T12:54:02;27.50;59.00
18105;DHT22;9179;50.968;3.134;2023-02-28T12:56:41;27.50;58.80
18105;DHT22;9179;50.968;3.134;2023-02-28T12:59:17;27.40;58.90
18105;DHT22;9179;50.968;3.134;2023-02-28T13:02:00;27.30;58.90
18105;DHT22;9179;50.968;3.134;2023-02-28T13:04:46;27.30;58.90
18105;DHT22;9179;50.968;3.134;2023-02-28T13:10:41;27.30;59.00
18105;DHT22;9179;50.968;3.134;2023-02-28T13:13:16;27.30;58.80
18105;DHT22;9179;50.968;3.134;2023-02-28T13:16:01;27.20;58.80
18105;DHT22;9179;50.968;3.134;2023-02-28T13:18:34;27.20;58.90
18105;DHT22;9179;50.968;3.134;2023-02-28T13:21:04;27.20;59.10
18105;DHT22;9179;50.968;3.134;2023-02-28T13:24:00;27.10;59.40
18105;DHT22;9179;50.968;3.134;2023-02-28T13:29:42;27.10;59.60
18105;DHT22;9179;50.968;3.134;2023-02-28T13:32:28;27.10;59.70
18105;DHT22;9179;50.968;3.134;2023-02-28T13:38:36;27.00;59.90
18105;DHT22;9179;50.968;3.134;2023-02-28T13:41:42;27.00;60.00
18105;DHT22;9179;50.968;3.134;2023-02-28T13:44:10;27.00;60.50
18105;DHT22;9179;50.968;3.134;2023-02-28T13:49:45;26.90;60.00
18105;DHT22;9179;50.968;3.134;2023-02-28T13:52:16;26.90;60.00
18105;DHT22;9179;50.968;3.134;2023-02-28T13:54:56;26.80;60.00
18105;DHT22;9179;50.968;3.134;2023-02-28T13:57:34;26.80;60.00
18105;DHT22;9179;50.968;3.134;2023-02-28T14:00:19;26.80;60.20
18105;DHT22;9179;50.968;3.134;2023-02-28T14:03:06;26.80;60.20
18105;DHT22;9179;50.968;3.134;2023-02-28T14:05:36;26.80;60.30
18105;DHT22;9179;50.968;3.134;2023-02-28T14:08:06;26.80;60.40
18105;DHT22;9179;50.968;3.134;2023-02-28T14:10:39;26.80;60.40
18105;DHT22;9179;50.968;3.134;2023-02-28T14:13:14;26.70;60.40
18105;DHT22;9179;50.968;3.134;2023-02-28T14:16:03;26.70;60.50
18105;DHT22;9179;50.968;3.134;2023-02-28T14:18:33;26.70;60.60
18105;DHT22;9179;50.968;3.134;2023-02-28T14:21:11;26.70;60.70
18105;DHT22;9179;50.968;3.134;2023-02-28T14:23:56;26.60;60.50
18105;DHT22;9179;50.968;3.134;2023-02-28T14:26:45;26.70;60.70
18105;DHT22;9179;50.968;3.134;2023-02-28T14:32:25;26.60;60.80
18105;DHT22;9179;50.968;3.134;2023-02-28T14:35:00;26.60;60.90
18105;DHT22;9179;50.968;3.134;2023-02-28T14:37:32;26.60;61.00
18105;DHT22;9179;50.968;3.134;2023-02-28T14:40:01;26.50;60.90
18105;DHT22;9179;50.968;3.134;2023-02-28T14:42:32;26.50;60.90
18105;DHT22;9179;50.968;3.134;2023-02-28T14:45:00;26.50;61.00
18105;DHT22;9179;50.968;3.134;2023-02-28T14:47:30;26.50;61.20
18105;DHT22;9179;50.968;3.134;2023-02-28T14:49:59;26.50;61.20
18105;DHT22;9179;50.968;3.134;2023-02-28T14:52:28;26.40;62.10
18105;DHT22;9179;50.968;3.134;2023-02-28T14:54:58;26.40;61.30
18105;DHT22;9179;50.968;3.134;2023-02-28T14:57:27;26.40;61.40
18105;DHT22;9179;50.968;3.134;2023-02-28T14:59:58;26.40;61.50
18105;DHT22;9179;50.968;3.134;2023-02-28T15:02:29;26.40;61.70
18105;DHT22;9179;50.968;3.134;2023-02-28T15:04:59;26.40;61.70
18105;DHT22;9179;50.968;3.134;2023-02-28T15:07:26;26.40;61.80
18105;DHT22;9179;50.968;3.134;2023-02-28T15:10:14;26.40;61.80
18105;DHT22;9179;50.968;3.134;2023-02-28T15:12:49;26.40;62.00
18105;DHT22;9179;50.968;3.134;2023-02-28T15:15:18;26.40;62.20
18105;DHT22;9179;50.968;3.134;2023-02-28T15:17:49;26.40;62.20
18105;DHT22;9179;50.968;3.134;2023-02-28T15:20:19;26.40;62.20
18105;DHT22;9179;50.968;3.134;2023-02-28T15:22:47;26.40;62.30
18105;DHT22;9179;50.968;3.134;2023-02-28T15:25:19;26.40;62.30
18105;DHT22;9179;50.968;3.134;2023-02-28T15:27:49;26.30;62.10
18105;DHT22;9179;50.968;3.134;2023-02-28T15:30:19;26.30;62.00
18105;DHT22;9179;50.968;3.134;2023-02-28T15:33:03;26.30;61.90
18105;DHT22;9179;50.968;3.134;2023-02-28T15:35:32;26.30;61.90
18105;DHT22;9179;50.968;3.134;2023-02-28T15:38:02;26.30;61.80
18105;DHT22;9179;50.968;3.134;2023-02-28T15:40:32;26.30;63.10
18105;DHT22;9179;50.968;3.134;2023-02-28T15:43:07;26.30;62.90
18105;DHT22;9179;50.968;3.134;2023-02-28T15:45:39;26.30;62.90
18105;DHT22;9179;50.968;3.134;2023-02-28T15:48:16;26.30;62.90
18105;DHT22;9179;50.968;3.134;2023-02-28T15:50:48;26.20;63.00
18105;DHT22;9179;50.968;3.134;2023-02-28T15:53:17;26.30;63.10
18105;DHT22;9179;50.968;3.134;2023-02-28T15:55:52;26.20;62.90
18105;DHT22;9179;50.968;3.134;2023-02-28T15:58:20;26.20;63.00
18105;DHT22;9179;50.968;3.134;2023-02-28T16:01:01;26.20;63.00
18105;DHT22;9179;50.968;3.134;2023-02-28T16:03:38;26.10;62.90
18105;DHT22;9179;50.968;3.134;2023-02-28T16:06:31;26.10;63.00
18105;DHT22;9179;50.968;3.134;2023-02-28T16:08:59;26.10;63.10
18105;DHT22;9179;50.968;3.134;2023-02-28T16:11:26;26.00;63.10
18105;DHT22;9179;50.968;3.134;2023-02-28T16:13:54;26.00;63.30
18105;DHT22;9179;50.968;3.134;2023-02-28T16:16:23;26.00;63.30
18105;DHT22;9179;50.968;3.134;2023-02-28T16:18:51;25.90;63.10
18105;DHT22;9179;50.968;3.134;2023-02-28T16:21:19;25.90;63.20
18105;DHT22;9179;50.968;3.134;2023-02-28T16:23:46;25.80;63.30
18105;DHT22;9179;50.968;3.134;2023-02-28T16:26:19;25.80;63.50
18105;DHT22;9179;50.968;3.134;2023-02-28T16:28:48;25.80;63.60
18105;DHT22;9179;50.968;3.134;2023-02-28T16:31:15;25.70;63.60
18105;DHT22;9179;50.968;3.134;2023-02-28T16:33:42;25.70;63.60